createdAt,value
2022-08-30T00:01:06.696Z,26.20
2022-08-30T00:03:42.834Z,26.19
2022-08-30T00:06:16.492Z,26.18
2022-08-30T00:08:50.349Z,26.17
2022-08-30T00:11:27.218Z,26.15
2022-08-30T00:14:00.011Z,26.13
2022-08-30T00:16:32.254Z,26.10
2022-08-30T00:19:05.028Z,26.08
2022-08-30T00:21:37.147Z,26.08
2022-08-30T00:24:09.434Z,26.08
2022-08-30T00:26:41.630Z,26.07
2022-08-30T00:29:14.135Z,26.07
2022-08-30T00:31:46.294Z,26.05
2022-08-30T00:34:18.530Z,26.02
2022-08-30T00:36:50.759Z,26.01
2022-08-30T00:39:22.942Z,25.98
2022-08-30T00:41:55.110Z,25.98
2022-08-30T00:44:27.489Z,25.97
2022-08-30T00:46:59.798Z,25.95
2022-08-30T00:49:34.209Z,25.92
2022-08-30T00:52:08.019Z,25.91
2022-08-30T00:54:41.281Z,25.90
2022-08-30T00:57:16.154Z,25.89
2022-08-30T00:59:50.990Z,25.89
2022-08-30T01:02:25.043Z,25.86
2022-08-30T01:04:57.873Z,25.85
2022-08-30T01:07:30.128Z,25.82
2022-08-30T01:10:02.365Z,25.79
2022-08-30T01:12:38.020Z,25.78
2022-08-30T01:15:14.548Z,25.76
2022-08-30T01:17:49.047Z,25.74
2022-08-30T01:20:31.153Z,25.72
2022-08-30T01:23:12.647Z,25.65
2022-08-30T01:25:46.564Z,25.60
2022-08-30T01:28:22.212Z,25.57
2022-08-30T01:30:55.033Z,25.55
2022-08-30T01:33:27.604Z,25.54
2022-08-30T01:36:06.070Z,25.54
2022-08-30T01:38:43.233Z,25.54
2022-08-30T01:41:18.092Z,25.54
2022-08-30T01:43:51.280Z,25.53
2022-08-30T01:46:25.264Z,25.52
2022-08-30T01:48:59.722Z,25.51
2022-08-30T01:51:32.908Z,25.48
2022-08-30T01:54:05.543Z,25.43
2022-08-30T01:56:37.719Z,25.37
2022-08-30T01:59:09.995Z,25.30
2022-08-30T02:01:43.228Z,25.23
2022-08-30T02:04:15.764Z,25.16
2022-08-30T02:06:48.047Z,25.10
2022-08-30T02:09:20.545Z,25.03
2022-08-30T02:11:52.938Z,24.98
2022-08-30T02:14:25.199Z,24.97
2022-08-30T02:16:57.424Z,24.93
2022-08-30T02:19:29.789Z,24.89
2022-08-30T02:22:02.399Z,24.86
2022-08-30T02:24:34.777Z,24.79
2022-08-30T02:27:07.717Z,24.74
2022-08-30T02:29:39.929Z,24.71
2022-08-30T02:32:12.129Z,24.68
2022-08-30T02:34:44.681Z,24.68
2022-08-30T02:37:16.965Z,24.64
2022-08-30T02:39:49.116Z,24.55
2022-08-30T02:42:21.385Z,24.50
2022-08-30T02:44:53.549Z,24.48
2022-08-30T02:47:25.720Z,24.42
2022-08-30T02:49:57.933Z,24.39
2022-08-30T02:52:30.712Z,24.32
2022-08-30T02:55:03.516Z,24.27
2022-08-30T02:57:35.915Z,24.22
2022-08-30T03:00:12.619Z,24.18
2022-08-30T03:02:44.972Z,24.15
2022-08-30T03:05:18.422Z,24.12
2022-08-30T03:07:50.624Z,24.06
2022-08-30T03:10:23.284Z,24.04
2022-08-30T03:12:55.503Z,23.99
2022-08-30T03:15:28.211Z,23.97
2022-08-30T03:18:00.767Z,23.99
2022-08-30T03:20:35.270Z,23.98
2022-08-30T03:23:07.388Z,23.98
2022-08-30T03:25:40.012Z,23.93
2022-08-30T03:28:15.285Z,23.87
2022-08-30T03:30:48.247Z,23.80
2022-08-30T03:33:20.580Z,23.74
2022-08-30T03:35:54.223Z,23.71
2022-08-30T03:38:26.843Z,23.66
2022-08-30T03:40:59.036Z,23.61
2022-08-30T03:43:33.388Z,23.57
2022-08-30T03:46:06.122Z,23.54
2022-08-30T03:48:38.783Z,23.53
2022-08-30T03:51:11.003Z,23.53
2022-08-30T03:53:43.232Z,23.54
2022-08-30T03:56:15.771Z,23.56
2022-08-30T03:58:48.283Z,23.58
2022-08-30T04:01:20.598Z,23.58
2022-08-30T04:03:52.827Z,23.62
2022-08-30T04:06:25.063Z,23.64
2022-08-30T04:08:57.351Z,23.66
2022-08-30T04:11:29.552Z,23.66
2022-08-30T04:14:01.822Z,23.67
2022-08-30T04:16:34.100Z,23.64
2022-08-30T04:19:07.043Z,23.67
2022-08-30T04:21:42.850Z,23.68
2022-08-30T04:24:16.259Z,23.67
2022-08-30T04:26:48.529Z,23.70
2022-08-30T04:29:20.817Z,23.71
2022-08-30T04:31:53.075Z,23.74
2022-08-30T04:34:25.243Z,23.77
2022-08-30T04:36:57.482Z,23.78
2022-08-30T04:39:31.066Z,23.79
2022-08-30T04:42:04.678Z,23.82
2022-08-30T04:44:36.915Z,23.84
2022-08-30T04:47:10.274Z,23.86
2022-08-30T04:49:42.711Z,23.89
2022-08-30T04:52:14.861Z,23.91
2022-08-30T04:54:47.093Z,23.95
2022-08-30T04:57:19.512Z,24.00
2022-08-30T04:59:51.816Z,24.09
2022-08-30T05:02:26.115Z,24.16
2022-08-30T05:05:15.687Z,24.23
2022-08-30T05:07:47.954Z,24.30
2022-08-30T05:10:20.512Z,24.35
2022-08-30T05:12:53.065Z,24.40
2022-08-30T05:15:25.459Z,24.45
2022-08-30T05:17:57.778Z,24.51
2022-08-30T05:20:30.246Z,24.54
2022-08-30T05:23:02.791Z,24.58
2022-08-30T05:25:38.992Z,24.62
2022-08-30T05:28:12.335Z,24.64
2022-08-30T05:30:44.571Z,24.70
2022-08-30T05:33:16.801Z,24.73
2022-08-30T05:35:48.968Z,24.79
2022-08-30T05:38:21.212Z,24.85
2022-08-30T05:40:56.614Z,24.90
2022-08-30T05:43:30.054Z,24.93
2022-08-30T05:46:05.443Z,24.99
2022-08-30T05:48:38.502Z,25.07
2022-08-30T05:51:13.542Z,25.19
2022-08-30T05:53:46.736Z,25.26
2022-08-30T05:56:21.648Z,25.35
2022-08-30T05:58:57.211Z,25.45
2022-08-30T06:01:33.273Z,25.59
2022-08-30T06:04:07.596Z,25.74
2022-08-30T06:06:42.319Z,25.86
2022-08-30T06:09:16.004Z,25.99
2022-08-30T06:11:48.841Z,26.07
2022-08-30T06:14:21.109Z,26.23
2022-08-30T06:16:53.852Z,26.38
2022-08-30T06:19:26.045Z,26.53
2022-08-30T06:21:58.208Z,26.71
2022-08-30T06:24:53.612Z,26.93
2022-08-30T06:27:22.683Z,27.15
2022-08-30T06:29:55.619Z,27.32
2022-08-30T06:32:27.898Z,27.48
2022-08-30T06:35:00.089Z,27.59
2022-08-30T06:37:33.146Z,27.74
2022-08-30T06:40:06.690Z,27.91
2022-08-30T06:42:38.851Z,28.09
2022-08-30T06:45:12.055Z,28.20
2022-08-30T06:47:44.856Z,28.33
2022-08-30T06:50:19.000Z,28.48
2022-08-30T06:52:51.378Z,28.61
2022-08-30T06:55:23.990Z,28.73
2022-08-30T06:57:56.239Z,28.80
2022-08-30T07:00:29.268Z,28.94
2022-08-30T07:03:02.764Z,29.06
2022-08-30T07:05:35.719Z,29.21
2022-08-30T07:08:08.178Z,29.44
2022-08-30T07:10:43.054Z,29.61
2022-08-30T07:13:15.388Z,29.69
2022-08-30T07:15:48.027Z,29.80
2022-08-30T07:18:38.804Z,29.90
2022-08-30T07:21:13.239Z,30.11
2022-08-30T07:23:53.064Z,30.41
2022-08-30T07:26:28.819Z,30.64
2022-08-30T07:29:03.012Z,30.73
2022-08-30T07:31:36.267Z,30.80
2022-08-30T07:34:09.668Z,31.02
2022-08-30T07:36:42.139Z,31.12
2022-08-30T07:39:14.325Z,31.19
2022-08-30T07:41:46.586Z,31.18
2022-08-30T07:44:18.864Z,31.16
2022-08-30T07:46:51.086Z,31.24
2022-08-30T07:49:23.398Z,31.43
2022-08-30T07:51:55.592Z,31.55
2022-08-30T07:54:27.868Z,31.89
2022-08-30T07:57:00.014Z,32.20
2022-08-30T07:59:35.619Z,32.52
2022-08-30T08:02:08.748Z,32.75
2022-08-30T08:04:41.099Z,32.85
2022-08-30T08:07:13.428Z,32.78
2022-08-30T08:09:45.908Z,32.77
2022-08-30T08:12:18.219Z,32.80
2022-08-30T08:14:50.623Z,32.68
2022-08-30T08:17:22.886Z,32.70
2022-08-30T08:19:55.143Z,32.77
2022-08-30T08:22:27.299Z,32.75
2022-08-30T08:24:59.592Z,32.73
2022-08-30T08:27:31.759Z,32.88
2022-08-30T08:30:04.178Z,33.21
2022-08-30T08:32:36.827Z,33.53
2022-08-30T08:35:11.651Z,33.69
2022-08-30T08:37:44.839Z,33.86
2022-08-30T08:40:20.853Z,34.01
2022-08-30T08:43:03.863Z,34.13
2022-08-30T08:45:57.485Z,34.23
2022-08-30T08:48:58.991Z,34.37
2022-08-30T08:51:53.663Z,34.78
2022-08-30T08:54:32.151Z,35.22
2022-08-30T08:57:04.572Z,35.61
2022-08-30T08:59:36.781Z,35.67
2022-08-30T09:02:24.203Z,35.52
2022-08-30T09:05:01.075Z,35.51
2022-08-30T09:07:37.343Z,35.54
2022-08-30T09:10:11.189Z,35.44
2022-08-30T09:12:45.254Z,35.41
2022-08-30T09:15:22.868Z,35.48
2022-08-30T09:17:58.084Z,35.71
2022-08-30T09:20:35.043Z,36.04
2022-08-30T09:23:30.168Z,36.20
2022-08-30T09:26:05.945Z,35.89
2022-08-30T09:28:49.727Z,35.61
2022-08-30T09:31:24.805Z,35.62
2022-08-30T09:34:05.490Z,35.88
2022-08-30T09:36:45.045Z,36.16
2022-08-30T09:39:22.458Z,36.46
2022-08-30T09:42:19.995Z,36.74
2022-08-30T09:44:52.941Z,37.06
2022-08-30T09:47:31.863Z,36.81
2022-08-30T09:50:10.855Z,36.49
2022-08-30T09:53:01.812Z,36.44
2022-08-30T09:55:56.610Z,36.58
2022-08-30T09:58:42.315Z,36.77
2022-08-30T10:01:21.565Z,37.04
2022-08-30T10:04:04.013Z,37.42
2022-08-30T10:06:42.943Z,37.78
2022-08-30T10:09:26.657Z,38.11
2022-08-30T10:12:07.461Z,38.26
2022-08-30T10:14:58.252Z,38.32
2022-08-30T10:17:49.463Z,38.37
2022-08-30T10:20:31.277Z,38.27
2022-08-30T10:23:10.860Z,38.12
2022-08-30T10:25:46.742Z,38.13
2022-08-30T10:28:28.750Z,38.14
2022-08-30T10:31:04.695Z,38.36
2022-08-30T10:33:43.520Z,38.61
2022-08-30T10:36:18.185Z,38.80
2022-08-30T10:38:54.958Z,38.95
2022-08-30T10:41:35.685Z,38.83
2022-08-30T10:44:16.678Z,38.44
2022-08-30T10:47:00.657Z,38.41
2022-08-30T10:49:40.447Z,38.50
2022-08-30T10:52:25.692Z,38.59
2022-08-30T10:55:05.956Z,38.68
2022-08-30T10:57:38.849Z,38.74
2022-08-30T11:00:23.945Z,38.30
2022-08-30T11:03:21.051Z,37.80
2022-08-30T11:06:16.740Z,37.17
2022-08-30T11:09:08.183Z,36.74
2022-08-30T11:12:01.034Z,36.71
2022-08-30T11:14:34.309Z,36.74
2022-08-30T11:17:06.612Z,36.51
2022-08-30T11:19:42.451Z,36.36
2022-08-30T11:22:23.011Z,36.29
2022-08-30T11:25:12.684Z,36.18
2022-08-30T11:27:51.392Z,36.13
2022-08-30T11:31:05.492Z,36.08
2022-08-30T11:33:49.600Z,35.98
2022-08-30T11:37:01.595Z,35.71
2022-08-30T11:39:55.023Z,35.35
2022-08-30T11:42:35.082Z,35.16
2022-08-30T11:45:40.635Z,35.08
2022-08-30T11:48:53.699Z,35.02
2022-08-30T11:52:23.837Z,35.00
2022-08-30T11:55:01.708Z,34.99
2022-08-30T11:57:46.659Z,35.00
2022-08-30T12:00:35.843Z,35.00
2022-08-30T12:03:28.676Z,34.95
2022-08-30T12:06:04.093Z,34.78
2022-08-30T12:09:02.274Z,34.73
2022-08-30T12:12:05.738Z,34.66
2022-08-30T12:14:52.076Z,34.56
2022-08-30T12:18:08.313Z,34.49
2022-08-30T12:20:50.439Z,34.38
2022-08-30T12:23:28.620Z,34.39
2022-08-30T12:26:15.966Z,34.45
2022-08-30T12:28:51.116Z,34.52
2022-08-30T12:31:27.035Z,34.55
2022-08-30T12:34:03.379Z,34.59
2022-08-30T12:36:38.991Z,34.59
2022-08-30T12:39:17.887Z,34.47
2022-08-30T12:41:50.202Z,34.36
2022-08-30T12:44:26.965Z,34.32
2022-08-30T12:47:03.295Z,34.30
2022-08-30T12:49:41.201Z,34.25
2022-08-30T12:52:24.452Z,34.17
2022-08-30T12:55:16.292Z,34.13
2022-08-30T12:58:03.015Z,34.12
2022-08-30T13:00:38.387Z,34.07
2022-08-30T13:03:31.406Z,34.04
2022-08-30T13:06:03.907Z,34.02
2022-08-30T13:08:38.564Z,33.96
2022-08-30T13:11:13.852Z,33.93
2022-08-30T13:13:52.344Z,33.91
2022-08-30T13:16:36.023Z,33.90
2022-08-30T13:19:29.530Z,33.88
2022-08-30T13:22:03.432Z,33.83
2022-08-30T13:24:35.886Z,33.70
2022-08-30T13:27:11.471Z,33.56
2022-08-30T13:29:43.654Z,33.45
2022-08-30T13:32:17.455Z,33.42
2022-08-30T13:34:49.722Z,33.40
2022-08-30T13:40:18.639Z,33.41
2022-08-30T13:42:51.613Z,33.45
2022-08-30T13:48:21.318Z,33.45
2022-08-30T13:50:57.214Z,33.40
2022-08-30T13:56:21.640Z,33.33
2022-08-30T13:58:53.966Z,33.31
2022-08-30T14:01:29.750Z,33.27
2022-08-30T14:04:17.580Z,33.21
2022-08-30T14:09:42.188Z,33.08
2022-08-30T14:12:14.621Z,33.06
2022-08-30T14:14:46.916Z,33.02
2022-08-30T14:17:19.416Z,33.00
2022-08-30T14:19:51.956Z,32.95
2022-08-30T14:22:25.978Z,32.92
2022-08-30T14:24:58.324Z,32.92
2022-08-30T14:27:30.894Z,32.94
2022-08-30T14:30:05.163Z,32.93
2022-08-30T14:32:37.338Z,32.85
2022-08-30T14:35:11.442Z,32.81
2022-08-30T14:37:43.651Z,32.74
2022-08-30T14:40:16.844Z,32.61
2022-08-30T14:42:49.136Z,32.53
2022-08-30T14:45:21.786Z,32.43
2022-08-30T14:47:55.179Z,32.31
2022-08-30T14:50:27.968Z,32.22
2022-08-30T14:53:00.302Z,32.14
2022-08-30T14:55:33.998Z,32.06
2022-08-30T14:58:07.086Z,31.94
2022-08-30T15:00:39.758Z,31.84
2022-08-30T15:03:12.733Z,31.70
2022-08-30T15:05:49.156Z,31.57
2022-08-30T15:08:25.120Z,31.46
2022-08-30T15:10:58.832Z,31.41
2022-08-30T15:13:31.049Z,31.43
2022-08-30T15:16:04.074Z,31.42
2022-08-30T15:18:36.255Z,31.41
2022-08-30T15:21:08.716Z,31.39
2022-08-30T15:23:41.670Z,31.30
2022-08-30T15:26:13.833Z,31.15
2022-08-30T15:28:47.191Z,31.03
2022-08-30T15:31:22.826Z,30.93
2022-08-30T15:33:55.428Z,30.86
2022-08-30T15:36:30.202Z,30.83
2022-08-30T15:39:02.636Z,30.82
2022-08-30T15:41:35.524Z,30.83
2022-08-30T15:44:10.199Z,30.85
2022-08-30T15:46:45.981Z,30.89
2022-08-30T15:49:20.179Z,30.89
2022-08-30T15:51:54.454Z,30.86
2022-08-30T15:54:27.220Z,30.79
2022-08-30T15:57:00.276Z,30.74
2022-08-30T15:59:35.371Z,30.72
2022-08-30T16:02:07.922Z,30.72
2022-08-30T16:04:40.559Z,30.70
2022-08-30T16:07:13.814Z,30.68
2022-08-30T16:09:46.084Z,30.68
2022-08-30T16:12:23.631Z,30.70
2022-08-30T16:14:56.184Z,30.71
2022-08-30T16:17:28.640Z,30.66
2022-08-30T16:20:02.906Z,30.62
2022-08-30T16:22:35.052Z,30.59
2022-08-30T16:25:08.482Z,30.53
2022-08-30T16:27:43.154Z,30.44
2022-08-30T16:30:17.104Z,30.36
2022-08-30T16:32:49.908Z,30.25
2022-08-30T16:35:23.894Z,30.20
2022-08-30T16:37:56.188Z,30.15
2022-08-30T16:40:28.452Z,30.10
2022-08-30T16:43:00.633Z,30.07
2022-08-30T16:45:34.666Z,30.05
2022-08-30T16:48:07.398Z,30.02
2022-08-30T16:50:41.932Z,30.00
2022-08-30T16:53:15.234Z,30.00
2022-08-30T16:55:47.389Z,29.97
2022-08-30T16:58:22.256Z,29.93
2022-08-30T17:00:56.743Z,29.90
2022-08-30T17:03:29.079Z,29.87
2022-08-30T17:06:03.236Z,29.83
2022-08-30T17:08:36.119Z,29.77
2022-08-30T17:11:08.823Z,29.70
2022-08-30T17:13:41.960Z,29.60
2022-08-30T17:16:14.366Z,29.54
2022-08-30T17:18:46.705Z,29.48
2022-08-30T17:21:18.935Z,29.43
2022-08-30T17:23:51.401Z,29.40
2022-08-30T17:26:23.564Z,29.36
2022-08-30T17:28:58.199Z,29.33
2022-08-30T17:31:31.591Z,29.28
2022-08-30T17:34:05.932Z,29.19
2022-08-30T17:36:39.199Z,29.17
2022-08-30T17:39:12.007Z,29.12
2022-08-30T17:41:50.729Z,29.01
2022-08-30T17:44:28.654Z,28.95
2022-08-30T17:47:01.452Z,28.89
2022-08-30T17:49:34.644Z,28.82
2022-08-30T17:52:07.943Z,28.77
2022-08-30T17:54:43.739Z,28.73
2022-08-30T17:57:15.923Z,28.70
2022-08-30T17:59:48.774Z,28.65
2022-08-30T18:02:22.795Z,28.63
2022-08-30T18:05:03.331Z,28.60
2022-08-30T18:07:35.983Z,28.56
2022-08-30T18:10:10.374Z,28.52
2022-08-30T18:12:42.597Z,28.50
2022-08-30T18:15:15.572Z,28.45
2022-08-30T18:17:49.307Z,28.40
2022-08-30T18:20:22.329Z,28.37
2022-08-30T18:22:58.770Z,28.35
2022-08-30T18:25:31.059Z,28.31
2022-08-30T18:28:03.475Z,28.30
2022-08-30T18:30:41.581Z,28.29
2022-08-30T18:33:14.985Z,28.27
2022-08-30T18:35:51.031Z,28.24
2022-08-30T18:38:25.771Z,28.24
2022-08-30T18:41:03.153Z,28.22
2022-08-30T18:43:36.059Z,28.21
2022-08-30T18:46:10.389Z,28.20
2022-08-30T18:48:44.737Z,28.17
2022-08-30T18:51:19.902Z,28.16
2022-08-30T18:53:50.975Z,28.14
2022-08-30T18:56:23.532Z,28.09
2022-08-30T18:59:00.955Z,28.06
2022-08-30T19:01:34.890Z,28.04
2022-08-30T19:04:09.084Z,28.01
2022-08-30T19:06:44.291Z,27.96
2022-08-30T19:09:16.935Z,27.92
2022-08-30T19:11:49.746Z,27.88
2022-08-30T19:14:24.738Z,27.84
2022-08-30T19:17:06.065Z,27.80
2022-08-30T19:19:48.718Z,27.76
2022-08-30T19:22:26.613Z,27.68
2022-08-30T19:25:00.931Z,27.59
2022-08-30T19:27:38.198Z,27.57
2022-08-30T19:30:21.578Z,27.54
2022-08-30T19:32:56.463Z,27.51
2022-08-30T19:35:30.186Z,27.46
2022-08-30T19:38:03.058Z,27.42
2022-08-30T19:40:35.364Z,27.41
2022-08-30T19:43:07.669Z,27.38
2022-08-30T19:45:40.235Z,27.33
2022-08-30T19:48:12.429Z,27.30
2022-08-30T19:50:45.632Z,27.29
2022-08-30T19:53:20.281Z,27.29
2022-08-30T19:55:54.286Z,27.27
2022-08-30T19:58:26.453Z,27.27
2022-08-30T20:01:12.148Z,27.25
2022-08-30T20:03:47.004Z,27.21
2022-08-30T20:06:19.680Z,27.17
2022-08-30T20:08:52.111Z,27.13
2022-08-30T20:11:29.182Z,27.14
2022-08-30T20:14:01.446Z,27.13
2022-08-30T20:16:37.704Z,27.15
2022-08-30T20:19:14.907Z,27.16
2022-08-30T20:21:47.262Z,27.13
2022-08-30T20:24:22.639Z,27.14
2022-08-30T20:26:54.806Z,27.13
2022-08-30T20:29:27.014Z,27.08
2022-08-30T20:31:59.189Z,27.08
2022-08-30T20:34:31.507Z,27.08
2022-08-30T20:37:03.817Z,27.07
2022-08-30T20:39:36.142Z,27.09
2022-08-30T20:42:09.076Z,27.08
2022-08-30T20:44:41.718Z,27.08
2022-08-30T20:47:14.332Z,27.08
2022-08-30T20:49:46.500Z,27.06
2022-08-30T20:52:18.871Z,27.02
2022-08-30T20:54:54.526Z,26.95
2022-08-30T20:57:27.076Z,26.83
2022-08-30T21:00:01.688Z,26.70
2022-08-30T21:02:34.413Z,26.51
2022-08-30T21:05:08.381Z,26.34
2022-08-30T21:07:41.409Z,26.11
2022-08-30T21:10:21.199Z,25.96
2022-08-30T21:12:56.396Z,25.86
2022-08-30T21:15:37.368Z,25.77
2022-08-30T21:18:10.585Z,25.69
2022-08-30T21:20:42.831Z,25.62
2022-08-30T21:23:15.036Z,25.60
2022-08-30T21:25:47.240Z,25.57
2022-08-30T21:28:19.946Z,25.51
2022-08-30T21:30:52.342Z,25.44
2022-08-30T21:33:24.539Z,25.36
2022-08-30T21:36:16.599Z,25.30
2022-08-30T21:38:48.716Z,25.23
2022-08-30T21:41:22.129Z,25.17
2022-08-30T21:44:01.235Z,25.11
2022-08-30T21:46:34.859Z,25.07
2022-08-30T21:49:09.839Z,25.02
2022-08-30T21:51:45.443Z,25.00
2022-08-30T21:54:19.393Z,24.98
2022-08-30T21:56:53.499Z,24.98
2022-08-30T21:59:26.137Z,24.97
2022-08-30T22:01:59.249Z,24.97
2022-08-30T22:04:31.748Z,25.00
2022-08-30T22:07:06.550Z,25.03
2022-08-30T22:09:39.292Z,25.05
2022-08-30T22:12:12.015Z,25.07
2022-08-30T22:14:44.224Z,25.09
2022-08-30T22:17:17.033Z,25.11
2022-08-30T22:19:49.263Z,25.13
2022-08-30T22:22:21.450Z,25.14
2022-08-30T22:24:53.631Z,25.14
2022-08-30T22:27:25.845Z,25.15
2022-08-30T22:29:58.074Z,25.14
2022-08-30T22:32:30.307Z,25.13
2022-08-30T22:35:02.507Z,25.12
2022-08-30T22:37:34.759Z,25.14
2022-08-30T22:40:07.831Z,25.16
2022-08-30T22:42:40.119Z,25.18
2022-08-30T22:45:20.671Z,25.18
2022-08-30T22:47:52.915Z,25.20
2022-08-30T22:50:25.501Z,25.20
2022-08-30T22:52:57.736Z,25.22
2022-08-30T22:55:30.514Z,25.25
2022-08-30T22:58:02.774Z,25.27
2022-08-30T23:00:35.377Z,25.29
2022-08-30T23:03:08.214Z,25.32
2022-08-30T23:05:40.675Z,25.34
2022-08-30T23:08:12.881Z,25.36
2022-08-30T23:10:45.896Z,25.38
2022-08-30T23:13:18.258Z,25.39
2022-08-30T23:15:50.676Z,25.39
2022-08-30T23:18:22.893Z,25.38
2022-08-30T23:20:55.087Z,25.38
2022-08-30T23:23:44.567Z,25.40
2022-08-30T23:26:36.460Z,25.41
2022-08-30T23:29:27.986Z,25.44
2022-08-30T23:32:18.360Z,25.45
2022-08-30T23:35:07.855Z,25.47
2022-08-30T23:37:57.728Z,25.48
2022-08-30T23:40:47.384Z,25.47
2022-08-30T23:43:37.001Z,25.48
2022-08-30T23:46:26.757Z,25.46
2022-08-30T23:49:16.778Z,25.46
2022-08-30T23:52:06.605Z,25.41
2022-08-30T23:54:57.428Z,25.40
2022-08-30T23:57:47.789Z,25.40
